KISO

Kinston Regional Jetport at Stallings Field Airport

Kinston, North Carolina, USA
KISO 181859Z 1819/1918 28006KT P6SM SCT250 FM190300 00000KT P6SM BKN050 FM191200 00000KT P6SM SCT025 FM191600 11005KT P6SM BKN025 AMD LTD TO CLD VIS AND WIND
Issued Valid From Valid To
Jan-18 @ 18:59 UTC
(an hour ago)
Jan-18 @ 19:00 UTC
(an hour ago)
Jan-19 @ 18:00 UTC
(in 22 hours)
Jan-18 @ 19:00 to Jan-19 @ 03:00
KISO 181859Z 1819/1918 28006KT P6SM SCT250
Wind Visibility Clouds
280° at 6 knots Greater than 6 miles
  • Scattered at 25,000' AGL
From Jan-19 @ 03:00 to Jan-19 @ 12:00
FM190300 00000KT P6SM BKN050
Visibility Clouds
Greater than 6 miles
  • Broken at 5,000' AGL
From Jan-19 @ 12:00 to Jan-19 @ 16:00
FM191200 00000KT P6SM SCT025
Visibility Clouds
Greater than 6 miles
  • Scattered at 2,500' AGL
From Jan-19 @ 16:00 to Jan-19 @ 18:00
FM191600 11005KT P6SM BKN025 AMD LTD TO CLD VIS AND WIND
Wind Visibility Clouds
110° at 5 knots Greater than 6 miles
  • Broken at 2,500' AGL
KISO 181859Z 1819/1918 28006KT P6SM SCT250 FM190300 00000KT P6SM BKN050 FM191200 00000KT P6SM SCT025 FM191600 11005KT P6SM BKN025 AMD LTD TO CLD VIS AND WIND
Issued Jan-18 @ 18:59 UTC
(an hour ago)
Valid From Jan-18 @ 19:00 UTC
(an hour ago)
Valid To Jan-19 @ 18:00 UTC
(in 22 hours)
Jan-18 @ 19:00 - Jan-19 @ 03:00
Wind Visibility
280° at 6 knots Greater than 6 miles
Clouds
  • Scattered at 25,000' AGL
From Jan-19 @ 03:00 - Jan-19 @ 12:00
Clouds
  • Broken at 5,000' AGL
From Jan-19 @ 12:00 - Jan-19 @ 16:00
Clouds
  • Scattered at 2,500' AGL
From Jan-19 @ 16:00 - Jan-19 @ 18:00
Wind Visibility
110° at 5 knots Greater than 6 miles
Clouds
  • Broken at 2,500' AGL